Terminal Aerodrome Forecast
Issued by NWS

Home | Current Version | Previous Version | Text Only | Print | Product List | Glossary On
Versions: 1 2 3 4 5 6 7 8 9 10 11 12 13 14 15 16 17 18 19 20 21 22 23 24 25 26 27 28 29 30
000
FTUS44 KOUN 192047 AAA
TAFCSM
TAF AMD
KCSM 192047Z 1921/2018 17011KT P6SM SCT050 BKN250
     FM200800 17007KT P6SM BKN015 PROB30 2011/2017 4SM RA BR OVC010=

USA.gov is the U.S. government's official web portal to all federal, state and local government web resources and services.